Time;durP1;ratioP1;P1;durP2;ratioP2;P2;SDS_P1;SDS_P2;PMS_P1;PMS_P2;Temp;Humidity;BMP_temperature;BMP_pressure;BME280_temperature;BME280_humidity;BME280_pressure;Samples;Min_cycle;Max_cycle;Signal;HPM_P1;HPM_P2
2024/03/08 00:02:12;;;;;;;;;;;;;;;6.74;100.00;100671.44;5031593;28;19917;-71
2024/03/08 00:04:38;;;;;;;;;;;;;;;6.69;100.00;100679.66;5036907;28;20036;-73
2024/03/08 00:07:04;;;;;;;;;;;;;;;6.61;100.00;100677.53;5034217;28;19999;-70
2024/03/08 00:09:30;;;;;;;;;;;;;;;6.64;100.00;100679.38;5035060;28;19925;-71
2024/03/08 00:11:56;;;;;;;;;;;;;;;6.70;100.00;100674.59;5031104;28;19927;-75
2024/03/08 00:14:21;;;;;;;;;;;;;;;6.74;100.00;100673.09;5030813;28;19929;-72
2024/03/08 00:16:47;;;;;;;;;;;;;;;6.76;100.00;100668.94;5027915;28;19979;-71
2024/03/08 00:19:12;;;;;;;;;;;;;;;6.70;100.00;100677.16;5028288;28;20373;-70
2024/03/08 00:21:37;;;;;;;;;;;;;;;6.72;100.00;100667.03;5030091;28;19944;-73
2024/03/08 00:24:03;;;;;;;;;;;;;;;6.77;100.00;100670.72;5028242;28;19979;-70
2024/03/08 00:26:29;;;;;;;;;;;;;;;6.80;100.00;100666.66;5030763;28;19917;-70
2024/03/08 00:28:56;;;;;;;;;;;;;;;6.80;100.00;100666.66;5019806;28;19921;-70
2024/03/08 00:31:21;;;;;;;;;;;;;;;6.75;100.00;100667.16;5027758;28;20011;-70
2024/03/08 00:33:47;;;;;;;;;;;;;;;6.75;100.00;100668.06;5029381;28;20473;-71
2024/03/08 00:36:12;;;;;;;;;;;;;;;6.75;100.00;100670.63;5025176;28;20407;-70
2024/03/08 00:38:37;;;;;;;;;;;;;;;6.74;100.00;100668.88;5027175;28;19918;-70
2024/03/08 00:41:03;;;;;;;;;;;;;;;6.79;100.00;100661.41;5028916;28;20380;-70
2024/03/08 00:43:30;;;;;;;;;;;;;;;6.80;100.00;100671.78;5040119;28;20032;-69
2024/03/08 00:45:55;;;;;;;;;;;;;;;6.74;100.00;100666.31;5053647;28;19917;-70
2024/03/08 00:48:21;;;;;;;;;;;;;;;6.71;100.00;100670.38;5053106;28;19916;-71
2024/03/08 00:50:46;;;;;;;;;;;;;;;6.76;100.00;100658.69;5053163;28;19927;-70
2024/03/08 00:53:12;;;;;;;;;;;;;;;6.77;100.00;100658.75;5052640;28;20011;-73
2024/03/08 00:55:38;;;;;;;;;;;;;;;6.82;100.00;100659.03;5016900;28;20325;-70
2024/03/08 00:58:03;;;;;;;;;;;;;;;6.81;100.00;100657.25;5053883;28;19916;-70
2024/03/08 01:00:30;;;;;;;;;;;;;;;6.82;100.00;100661.59;5054006;28;20406;-70
2024/03/08 01:02:56;;;;;;;;;;;;;;;6.82;100.00;100651.31;5052000;28;20029;-72
2024/03/08 01:05:23;;;;;;;;;;;;;;;6.79;100.00;100657.16;5052607;28;20015;-73
2024/03/08 01:07:49;;;;;;;;;;;;;;;6.78;100.00;100657.09;5052697;28;19928;-70
2024/03/08 01:10:15;;;;;;;;;;;;;;;6.73;100.00;100648.22;5052616;28;19927;-71
2024/03/08 01:12:40;;;;;;;;;;;;;;;6.67;100.00;100648.78;5052058;28;20019;-72
2024/03/08 01:15:06;;;;;;;;;;;;;;;6.65;100.00;100655.50;5035196;28;19920;-70
2024/03/08 01:17:31;;;;;;;;;;;;;;;6.58;100.00;100656.88;5052730;28;21184;-69
2024/03/08 01:19:58;;;;;;;;;;;;;;;6.53;100.00;100650.59;5052179;28;20431;-70
2024/03/08 01:22:23;;;;;;;;;;;;;;;6.60;100.00;100656.94;5052724;28;19947;-71
2024/03/08 01:24:49;;;;;;;;;;;;;;;6.62;100.00;100660.47;5047415;28;19920;-70
2024/03/08 01:27:14;;;;;;;;;;;;;;;6.63;100.00;100663.13;5052564;28;19931;-69
2024/03/08 01:29:39;;;;;;;;;;;;;;;6.62;100.00;100663.06;5053209;28;19924;-71
2024/03/08 01:32:06;;;;;;;;;;;;;;;6.55;100.00;100660.94;5052579;28;20438;-72
2024/03/08 01:34:32;;;;;;;;;;;;;;;6.54;100.00;100661.72;5052725;28;19920;-71
2024/03/08 01:36:58;;;;;;;;;;;;;;;6.49;100.00;100664.03;5052117;28;19924;-70
2024/03/08 01:39:23;;;;;;;;;;;;;;;6.48;100.00;100660.59;5033981;28;19921;-70
2024/03/08 01:41:49;;;;;;;;;;;;;;;6.48;100.00;100663.16;5052100;28;19920;-71
2024/03/08 01:44:17;;;;;;;;;;;;;;;6.46;100.00;100666.44;5051144;28;20275;-71
2024/03/08 01:46:47;;;;;;;;;;;;;;;6.43;100.00;100667.13;5034102;28;19917;-70
2024/03/08 01:49:13;;;;;;;;;;;;;;;6.42;100.00;100669.63;5052050;28;20356;-69
2024/03/08 01:51:41;;;;;;;;;;;;;;;6.43;100.00;100666.22;5051586;28;19913;-71
2024/03/08 01:54:07;;;;;;;;;;;;;;;6.44;100.00;100665.44;5051791;28;20371;-70
2024/03/08 01:56:32;;;;;;;;;;;;;;;6.51;100.00;100672.69;5051825;28;19944;-72
2024/03/08 01:58:59;;;;;;;;;;;;;;;6.43;100.00;100673.94;5051647;28;19921;-72
2024/03/08 02:01:25;;;;;;;;;;;;;;;6.41;100.00;100675.53;5047048;28;20016;-71
2024/03/08 02:03:50;;;;;;;;;;;;;;;6.42;100.00;100673.06;5052162;28;20382;-72
2024/03/08 02:06:16;;;;;;;;;;;;;;;6.38;100.00;100671.13;5051656;28;19974;-70
2024/03/08 02:08:46;;;;;;;;;;;;;;;6.40;100.00;100674.63;5051710;28;19921;-69
2024/03/08 02:11:11;;;;;;;;;;;;;;;6.41;100.00;100676.41;5050922;28;19936;-71
2024/03/08 02:13:37;;;;;;;;;;;;;;;6.31;100.00;100669.00;5051981;28;19921;-75
2024/03/08 02:16:02;;;;;;;;;;;;;;;6.32;100.00;100670.78;5051954;28;19928;-72
2024/03/08 02:18:28;;;;;;;;;;;;;;;6.37;100.00;100678.72;5051638;28;19921;-72
2024/03/08 02:20:55;;;;;;;;;;;;;;;6.36;100.00;100674.41;5051600;28;19931;-70
2024/03/08 02:23:20;;;;;;;;;;;;;;;6.30;100.00;100680.06;5051736;28;19921;-72
2024/03/08 02:25:46;;;;;;;;;;;;;;;6.24;100.00;100672.91;5032670;28;19932;-70
2024/03/08 02:28:12;;;;;;;;;;;;;;;6.18;100.00;100669.09;5051130;28;19917;-71
2024/03/08 02:30:38;;;;;;;;;;;;;;;6.19;100.00;100671.72;5050379;28;19917;-73
2024/03/08 02:33:03;;;;;;;;;;;;;;;6.10;100.00;100674.66;5051773;28;19924;-71
2024/03/08 02:35:29;;;;;;;;;;;;;;;6.02;100.00;100678.47;5051536;28;20295;-72
2024/03/08 02:37:54;;;;;;;;;;;;;;;5.96;100.00;100676.38;5051698;28;19917;-70
2024/03/08 02:40:19;;;;;;;;;;;;;;;5.94;100.00;100671.97;5050473;28;19921;-73
2024/03/08 02:42:46;;;;;;;;;;;;;;;5.93;100.00;100678.78;5051074;28;19924;-73
2024/03/08 02:45:11;;;;;;;;;;;;;;;5.90;100.00;100675.13;5050761;28;19920;-71
2024/03/08 02:47:37;;;;;;;;;;;;;;;5.96;100.00;100684.06;5050865;28;19924;-73
2024/03/08 02:50:03;;;;;;;;;;;;;;;5.96;100.00;100683.19;5051058;28;19936;-72
2024/03/08 02:52:28;;;;;;;;;;;;;;;5.91;100.00;100684.59;5050880;28;19916;-73
2024/03/08 02:54:54;;;;;;;;;;;;;;;5.90;100.00;100678.56;5051023;28;19978;-69
2024/03/08 02:57:19;;;;;;;;;;;;;;;5.90;100.00;100680.25;5051351;28;19925;-73
2024/03/08 02:59:45;;;;;;;;;;;;;;;5.86;100.00;100686.88;5050008;28;19977;-73
2024/03/08 03:02:11;;;;;;;;;;;;;;;5.83;100.00;100685.03;5051161;28;20392;-72
2024/03/08 03:04:39;;;;;;;;;;;;;;;5.73;100.00;100690.41;5050267;28;19939;-72
2024/03/08 03:07:04;;;;;;;;;;;;;;;5.73;100.00;100687.84;5031316;28;19921;-72
2024/03/08 03:09:32;;;;;;;;;;;;;;;5.74;100.00;100681.91;5050343;28;19921;-73
2024/03/08 03:11:58;;;;;;;;;;;;;;;5.71;100.00;100679.16;5050770;28;19917;-73
2024/03/08 03:14:23;;;;;;;;;;;;;;;5.65;100.00;100679.66;5050015;28;19974;-71
2024/03/08 03:16:49;;;;;;;;;;;;;;;5.64;100.00;100672.78;5050896;28;19970;-71
2024/03/08 03:19:15;;;;;;;;;;;;;;;5.65;100.00;100677.09;5050162;28;19921;-72
2024/03/08 03:21:43;;;;;;;;;;;;;;;5.67;100.00;100680.66;5050417;28;19925;-71
2024/03/08 03:24:10;;;;;;;;;;;;;;;5.70;100.00;100676.53;5050346;28;19925;-72
2024/03/08 03:26:38;;;;;;;;;;;;;;;5.72;100.00;100680.94;5050005;28;19932;-70
2024/03/08 03:29:06;;;;;;;;;;;;;;;5.73;100.00;100680.16;5049811;28;19917;-72
2024/03/08 03:31:31;;;;;;;;;;;;;;;5.75;100.00;100676.00;5050452;28;19928;-72
2024/03/08 03:34:01;;;;;;;;;;;;;;;5.79;100.00;100679.63;5050032;28;19921;-73
2024/03/08 03:36:27;;;;;;;;;;;;;;;5.77;100.00;100673.50;5041490;28;19921;-72
2024/03/08 03:39:04;;;;;;;;;;;;;;;5.77;100.00;100684.66;5050076;28;20307;-72
2024/03/08 03:41:29;;;;;;;;;;;;;;;5.75;100.00;100687.94;5050367;28;19927;-72
2024/03/08 03:43:55;;;;;;;;;;;;;;;5.67;100.00;100678.09;5031075;28;20048;-71
2024/03/08 03:46:20;;;;;;;;;;;;;;;5.68;100.00;100678.97;5050192;28;20346;-72
2024/03/08 03:48:46;;;;;;;;;;;;;;;5.70;100.00;100684.22;5028185;28;20308;-73
2024/03/08 03:51:11;;;;;;;;;;;;;;;5.75;100.00;100680.25;5049773;28;19917;-71
2024/03/08 03:53:37;;;;;;;;;;;;;;;5.76;100.00;100677.75;5049875;28;19917;-71
2024/03/08 03:56:06;;;;;;;;;;;;;;;5.81;100.00;100680.59;5048377;28;20000;-72
2024/03/08 03:58:32;;;;;;;;;;;;;;;5.85;100.00;100694.50;5049398;28;19947;-74
2024/03/08 04:00:57;;;;;;;;;;;;;;;5.86;100.00;100689.44;5050385;28;20651;-72
2024/03/08 04:03:23;;;;;;;;;;;;;;;5.81;100.00;100696.84;5047222;28;20019;-73
2024/03/08 04:05:48;;;;;;;;;;;;;;;5.85;100.00;100694.50;5049928;28;19931;-76
2024/03/08 04:08:14;;;;;;;;;;;;;;;5.69;100.00;100700.38;5049128;28;19928;-71
2024/03/08 04:10:41;;;;;;;;;;;;;;;5.45;100.00;100708.31;5050192;28;19921;-74
2024/03/08 04:13:07;;;;;;;;;;;;;;;5.32;100.00;100698.97;5050032;28;19921;-70
2024/03/08 04:15:32;;;;;;;;;;;;;;;5.19;100.00;100705.91;5049805;28;19927;-71
2024/03/08 04:17:57;;;;;;;;;;;;;;;5.18;100.00;100703.25;5053331;28;19928;-70
2024/03/08 04:20:23;;;;;;;;;;;;;;;5.16;100.00;100708.28;5053683;28;19931;-72
2024/03/08 04:22:49;;;;;;;;;;;;;;;5.19;100.00;100715.28;5054573;28;20292;-73
2024/03/08 04:25:14;;;;;;;;;;;;;;;5.23;100.00;100704.41;5054115;28;19921;-72
2024/03/08 04:27:40;;;;;;;;;;;;;;;5.27;100.00;100711.53;5035552;28;20406;-71
2024/03/08 04:30:09;;;;;;;;;;;;;;;5.33;100.00;100708.44;5035726;28;19925;-71
2024/03/08 04:32:34;;;;;;;;;;;;;;;5.38;100.00;100713.84;5019013;28;19925;-71
2024/03/08 04:35:03;;;;;;;;;;;;;;;5.45;100.00;100709.19;5054374;28;20284;-72
2024/03/08 04:37:31;;;;;;;;;;;;;;;5.46;100.00;100710.09;5053927;28;19925;-71
2024/03/08 04:39:57;;;;;;;;;;;;;;;5.44;100.00;100714.22;5053470;28;19964;-71
2024/03/08 04:42:22;;;;;;;;;;;;;;;5.32;100.00;100705.00;5053667;28;20016;-71
2024/03/08 04:44:48;;;;;;;;;;;;;;;5.26;100.00;100714.88;5053708;28;19921;-71
2024/03/08 04:47:13;;;;;;;;;;;;;;;5.24;100.00;100716.44;5053660;28;19957;-70
2024/03/08 04:49:39;;;;;;;;;;;;;;;5.26;100.00;100714.88;5054266;28;19921;-71
2024/03/08 04:52:04;;;;;;;;;;;;;;;5.27;100.00;100716.66;5053526;28;19956;-69
2024/03/08 04:54:30;;;;;;;;;;;;;;;5.28;100.00;100718.41;5053157;28;19978;-71
2024/03/08 04:56:55;;;;;;;;;;;;;;;5.29;100.00;100725.28;5053550;28;19920;-70
2024/03/08 04:59:21;;;;;;;;;;;;;;;5.31;100.00;100726.28;5053812;28;20376;-71
2024/03/08 05:01:47;;;;;;;;;;;;;;;5.29;100.00;100722.72;5044925;28;19981;-72
2024/03/08 05:04:12;;;;;;;;;;;;;;;5.23;100.00;100730.03;5035362;28;19928;-71
2024/03/08 05:06:38;;;;;;;;;;;;;;;5.25;100.00;100728.44;5052800;28;20016;-70
2024/03/08 05:09:13;;;;;;;;;;;;;;;5.28;100.00;100732.88;5017477;28;19986;-71
2024/03/08 05:11:42;;;;;;;;;;;;;;;5.31;100.00;100731.41;5052934;28;19924;-71
2024/03/08 05:14:08;;;;;;;;;;;;;;;5.30;100.00;100731.31;5053330;28;19929;-71
2024/03/08 05:16:33;;;;;;;;;;;;;;;5.30;100.00;100732.19;5053083;28;19920;-71
2024/03/08 05:18:59;;;;;;;;;;;;;;;5.27;100.00;100736.22;5050849;28;20303;-75
2024/03/08 05:21:24;;;;;;;;;;;;;;;5.33;100.00;100742.63;5053517;28;19921;-71
2024/03/08 05:23:50;;;;;;;;;;;;;;;5.36;100.00;100744.50;5052448;28;19974;-71
2024/03/08 05:26:16;;;;;;;;;;;;;;;5.34;100.00;100749.50;5052851;28;19928;-70
2024/03/08 05:28:41;;;;;;;;;;;;;;;5.33;100.00;100758.00;5035858;28;19917;-71
2024/03/08 05:31:07;;;;;;;;;;;;;;;5.37;100.00;100761.63;5052795;28;19916;-71
2024/03/08 05:33:34;;;;;;;;;;;;;;;5.35;100.00;100763.19;5053091;28;19916;-71
2024/03/08 05:36:00;;;;;;;;;;;;;;;5.43;100.00;100758.53;5052645;28;19920;-70
2024/03/08 05:38:26;;;;;;;;;;;;;;;5.43;100.00;100763.66;5052083;28;19953;-70
2024/03/08 05:40:51;;;;;;;;;;;;;;;5.49;100.00;100764.06;5052232;28;19956;-71
2024/03/08 05:43:19;;;;;;;;;;;;;;;5.53;100.00;100768.56;5050984;28;20007;-72
2024/03/08 05:45:44;;;;;;;;;;;;;;;5.63;100.00;100765.81;5052393;28;19932;-71
2024/03/08 05:48:10;;;;;;;;;;;;;;;5.69;100.00;100766.97;5052627;28;19921;-71
2024/03/08 05:50:35;;;;;;;;;;;;;;;5.74;100.00;100769.00;5052397;28;20285;-70
2024/03/08 05:53:00;;;;;;;;;;;;;;;5.74;100.00;100775.81;5052462;28;20015;-71
2024/03/08 05:55:26;;;;;;;;;;;;;;;5.64;100.00;100777.78;5052872;28;20003;-73
2024/03/08 05:57:53;;;;;;;;;;;;;;;5.60;100.00;100770.72;5052199;28;20032;-70
2024/03/08 06:00:19;;;;;;;;;;;;;;;5.57;100.00;100769.63;5052253;28;19921;-71
2024/03/08 06:02:44;;;;;;;;;;;;;;;5.50;100.00;100778.63;5048891;28;19932;-71
2024/03/08 06:05:10;;;;;;;;;;;;;;;5.42;100.00;100783.28;5051745;28;20015;-74
2024/03/08 06:07:36;;;;;;;;;;;;;;;5.41;100.00;100785.72;5052683;28;19952;-70
2024/03/08 06:10:02;;;;;;;;;;;;;;;5.44;100.00;100791.06;5050896;28;19960;-73
2024/03/08 06:12:28;;;;;;;;;;;;;;;5.43;100.00;100797.88;5046902;28;19927;-72
2024/03/08 06:14:54;;;;;;;;;;;;;;;5.38;100.00;100803.47;5053694;28;19927;-72
2024/03/08 06:17:19;;;;;;;;;;;;;;;5.35;100.00;100806.72;5036248;28;19916;-71
2024/03/08 06:19:46;;;;;;;;;;;;;;;5.33;100.00;100803.16;5059992;28;19917;-70
2024/03/08 06:22:11;;;;;;;;;;;;;;;5.30;100.00;100814.09;5057764;28;19924;-70
2024/03/08 06:24:37;;;;;;;;;;;;;;;5.35;100.00;100804.16;5053890;28;19994;-72
2024/03/08 06:27:03;;;;;;;;;;;;;;;5.44;100.00;100803.84;5060202;28;19996;-71
2024/03/08 06:29:29;;;;;;;;;;;;;;;5.49;100.00;100810.16;5035179;28;20027;-71
2024/03/08 06:31:55;;;;;;;;;;;;;;;5.58;100.00;100815.88;5056139;28;19928;-73
2024/03/08 06:34:20;;;;;;;;;;;;;;;5.67;100.00;100813.84;5053111;28;20283;-69
2024/03/08 06:36:46;;;;;;;;;;;;;;;5.75;100.00;100814.31;5058016;28;19917;-70
2024/03/08 06:39:11;;;;;;;;;;;;;;;5.83;100.00;100818.25;5053173;28;19921;-72
2024/03/08 06:41:40;;;;;;;;;;;;;;;5.87;100.00;100819.34;5054127;28;19927;-72
2024/03/08 06:44:07;;;;;;;;;;;;;;;5.91;100.00;100811.03;5005673;28;19931;-75
2024/03/08 06:46:33;;;;;;;;;;;;;;;5.90;100.00;100816.94;5044059;28;20297;-70
2024/03/08 06:48:59;;;;;;;;;;;;;;;5.91;100.00;100817.84;5037162;28;20320;-70
2024/03/08 06:51:24;;;;;;;;;;;;;;;5.95;100.00;100820.66;5033958;28;19921;-71
2024/03/08 06:53:50;;;;;;;;;;;;;;;5.93;100.00;100826.50;5033237;28;19913;-71
2024/03/08 06:56:15;;;;;;;;;;;;;;;5.99;100.00;100827.81;5036926;28;19921;-71
2024/03/08 06:58:40;;;;;;;;;;;;;;;6.09;100.00;100836.03;5035135;28;19921;-70
2024/03/08 07:01:07;;;;;;;;;;;;;;;6.07;100.00;100838.53;5032139;28;19923;-73
2024/03/08 07:03:32;;;;;;;;;;;;;;;6.00;100.00;100831.25;5038154;28;19928;-70
2024/03/08 07:05:58;;;;;;;;;;;;;;;6.01;100.00;100837.25;5032317;28;19928;-70
2024/03/08 07:08:23;;;;;;;;;;;;;;;5.99;100.00;100835.50;5037171;28;19929;-71
2024/03/08 07:10:49;;;;;;;;;;;;;;;5.92;100.00;100843.56;5030982;28;20004;-71
2024/03/08 07:13:14;;;;;;;;;;;;;;;5.94;100.00;100839.44;5031391;28;19979;-70
2024/03/08 07:15:40;;;;;;;;;;;;;;;6.00;100.00;100844.06;5035688;28;19956;-71
2024/03/08 07:18:05;;;;;;;;;;;;;;;6.00;100.00;100846.63;5038511;28;20334;-71
2024/03/08 07:20:31;;;;;;;;;;;;;;;6.04;100.00;100846.00;5031664;28;20347;-70
2024/03/08 07:22:56;;;;;;;;;;;;;;;6.07;100.00;100838.53;5030834;28;19917;-69
2024/03/08 07:25:22;;;;;;;;;;;;;;;6.03;100.00;100835.66;5030569;28;19979;-70
2024/03/08 07:27:48;;;;;;;;;;;;;;;6.09;100.00;100839.50;5031063;28;20253;-71
2024/03/08 07:30:52;;;;;;;;;;;;;;;6.10;100.00;100843.81;5031211;28;20008;-71
2024/03/08 07:32:59;;;;;;;;;;;;;;;6.18;100.00;100841.75;5030780;28;20006;-70
2024/03/08 07:35:26;;;;;;;;;;;;;;;6.21;100.00;100843.63;5030306;28;20030;-68
2024/03/08 07:37:54;;;;;;;;;;;;;;;6.24;100.00;100843.78;5030696;28;19972;-70
2024/03/08 07:40:20;;;;;;;;;;;;;;;6.34;100.00;100835.84;5030563;28;20024;-70
2024/03/08 07:42:45;;;;;;;;;;;;;;;6.43;100.00;100838.06;5033075;28;20031;-70
2024/03/08 07:45:10;;;;;;;;;;;;;;;6.53;100.00;100842.97;5050201;28;19925;-71
2024/03/08 07:47:36;;;;;;;;;;;;;;;6.57;100.00;100844.03;5050446;28;19925;-69
2024/03/08 07:50:01;;;;;;;;;;;;;;;6.56;100.00;100839.69;5050892;28;19951;-70
2024/03/08 07:52:27;;;;;;;;;;;;;;;6.55;100.00;100849.06;5049897;28;20403;-69
2024/03/08 07:54:53;;;;;;;;;;;;;;;6.53;100.00;100845.53;5050107;28;20065;-70
2024/03/08 07:57:19;;;;;;;;;;;;;;;6.55;100.00;100845.63;5050094;28;19998;-69
2024/03/08 07:59:45;;;;;;;;;;;;;;;6.62;100.00;100853.75;5050135;28;20379;-71
2024/03/08 08:02:10;;;;;;;;;;;;;;;6.64;100.00;100849.63;5050246;28;19924;-68
2024/03/08 08:04:36;;;;;;;;;;;;;;;6.69;100.00;100849.00;5050613;28;20320;-69
2024/03/08 08:07:01;;;;;;;;;;;;;;;6.69;100.00;100847.34;4998200;28;19928;-76
2024/03/08 08:09:34;;;;;;;;;;;;;;;6.78;100.00;100854.69;5050481;28;20399;-70
2024/03/08 08:12:01;;;;;;;;;;;;;;;6.77;100.00;100856.34;5050269;28;20564;-72
2024/03/08 08:14:26;;;;;;;;;;;;;;;6.78;100.00;100852.13;5050315;28;20050;-70
2024/03/08 08:16:52;;;;;;;;;;;;;;;6.79;100.00;100854.75;5049764;28;19929;-70
2024/03/08 08:19:18;;;;;;;;;;;;;;;6.79;100.00;100859.91;5050190;28;19925;-70
2024/03/08 08:21:43;;;;;;;;;;;;;;;6.80;100.00;100863.34;5049912;28;19940;-74
2024/03/08 08:24:09;;;;;;;;;;;;;;;6.80;100.00;100863.34;5050188;28;19970;-75
2024/03/08 08:26:35;;;;;;;;;;;;;;;6.80;100.00;100873.59;5049559;28;19928;-70
2024/03/08 08:29:01;;;;;;;;;;;;;;;6.76;100.00;100866.53;5015040;28;19927;-69
2024/03/08 08:31:27;;;;;;;;;;;;;;;6.77;100.00;100861.47;5050056;28;19921;-70
2024/03/08 08:33:58;;;;;;;;;;;;;;;6.82;100.00;100859.19;5049990;28;19917;-70
2024/03/08 08:36:23;;;;;;;;;;;;;;;6.81;100.00;100870.25;5048493;28;19924;-71
2024/03/08 08:38:48;;;;;;;;;;;;;;;6.86;100.00;100871.38;5050430;28;19917;-71
2024/03/08 08:41:14;;;;;;;;;;;;;;;6.86;100.00;100870.53;5049770;28;20297;-69
2024/03/08 08:43:39;;;;;;;;;;;;;;;6.86;100.00;100870.53;5049685;28;19953;-69
2024/03/08 08:46:04;;;;;;;;;;;;;;;6.78;100.00;100872.66;5050027;28;19931;-70
2024/03/08 08:48:30;;;;;;;;;;;;;;;6.67;100.00;100874.56;5049749;28;19960;-70
2024/03/08 08:50:56;;;;;;;;;;;;;;;6.58;100.00;100869.78;5049790;28;19921;-75
2024/03/08 08:53:21;;;;;;;;;;;;;;;6.60;100.00;100878.47;5049779;28;19972;-71
2024/03/08 08:55:47;;;;;;;;;;;;;;;6.63;100.00;100876.06;5028158;28;19967;-71
2024/03/08 08:58:13;;;;;;;;;;;;;;;6.66;100.00;100877.06;5049741;28;19920;-71
2024/03/08 09:00:39;;;;;;;;;;;;;;;6.70;100.00;100879.00;5049375;28;20442;-74
2024/03/08 09:03:06;;;;;;;;;;;;;;;6.70;100.00;100879.00;5049760;28;19921;-71
2024/03/08 09:05:32;;;;;;;;;;;;;;;6.71;100.00;100880.78;5053017;28;19924;-71
2024/03/08 09:07:57;;;;;;;;;;;;;;;6.66;100.00;100882.19;5053402;28;19925;-71
2024/03/08 09:10:23;;;;;;;;;;;;;;;6.63;100.00;100883.75;5053097;28;19925;-70
2024/03/08 09:12:48;;;;;;;;;;;;;;;6.64;100.00;100882.97;5009057;28;19951;-77
2024/03/08 09:15:13;;;;;;;;;;;;;;;6.67;100.00;100884.81;5052835;28;20354;-76
2024/03/08 09:17:39;;;;;;;;;;;;;;;6.67;100.00;100884.81;5053175;28;20088;-71
2024/03/08 09:20:10;;;;;;;;;;;;;;;6.66;100.00;100882.19;5053613;28;19959;-69
2024/03/08 09:22:40;;;;;;;;;;;;;;;6.71;100.00;100885.91;5052745;28;20347;-71
2024/03/08 09:25:07;;;;;;;;;;;;;;;6.78;100.00;100883.78;5052870;28;19951;-76
2024/03/08 09:27:33;;;;;;;;;;;;;;;6.83;100.00;100888.28;5017232;28;19925;-73
2024/03/08 09:29:59;;;;;;;;;;;;;;;6.87;100.00;100891.13;5052774;28;19931;-71
2024/03/08 09:32:24;;;;;;;;;;;;;;;6.93;100.00;100890.63;5052456;28;19921;-71
2024/03/08 09:34:50;;;;;;;;;;;;;;;6.96;100.00;100894.22;5052848;28;19920;-71
2024/03/08 09:37:15;;;;;;;;;;;;;;;6.90;100.00;100888.75;5052701;28;19925;-71
2024/03/08 09:39:41;;;;;;;;;;;;;;;6.86;100.00;100891.91;5052916;28;19916;-72
2024/03/08 09:42:06;;;;;;;;;;;;;;;6.92;100.00;100897.41;5053242;28;19917;-74
2024/03/08 09:44:31;;;;;;;;;;;;;;;6.94;100.00;100898.41;5052795;28;19921;-72
2024/03/08 09:47:02;;;;;;;;;;;;;;;7.03;100.00;100892.91;5052529;28;19921;-71
2024/03/08 09:49:28;;;;;;;;;;;;;;;7.04;100.00;100902.41;5052628;28;20003;-71
2024/03/08 09:51:55;;;;;;;;;;;;;;;7.08;100.00;100898.31;5052669;28;19939;-71
2024/03/08 09:54:21;;;;;;;;;;;;;;;7.14;100.00;100893.56;5052439;28;19927;-70
2024/03/08 09:56:49;;;;;;;;;;;;;;;7.26;100.00;100895.91;5052172;28;19920;-70
2024/03/08 09:59:33;;;;;;;;;;;;;;;7.36;100.00;100894.75;5052051;28;19916;-71
2024/03/08 10:01:59;;;;;;;;;;;;;;;7.36;100.00;100899.91;5043922;28;19976;-71
2024/03/08 10:04:25;;;;;;;;;;;;;;;7.42;100.00;100892.53;5052363;28;20284;-71
2024/03/08 10:06:52;;;;;;;;;;;;;;;7.42;100.00;100889.97;5052264;28;19917;-71
2024/03/08 10:09:17;;;;;;;;;;;;;;;7.45;100.00;100897.84;5052695;28;19917;-70
2024/03/08 10:11:42;;;;;;;;;;;;;;;7.42;100.00;100895.09;5051975;28;19978;-71
2024/03/08 10:14:11;;;;;;;;;;;;;;;7.43;100.00;100896.88;5051456;28;19971;-70
2024/03/08 10:16:39;;;;;;;;;;;;;;;7.42;100.00;100890.84;5048115;28;19968;-71
2024/03/08 10:19:05;;;;;;;;;;;;;;;7.47;100.00;100890.25;5051537;28;20400;-69
2024/03/08 10:21:31;;;;;;;;;;;;;;;7.49;100.00;100889.53;5052027;28;19925;-69
2024/03/08 10:23:58;;;;;;;;;;;;;;;7.54;100.00;100889.75;5051833;28;20071;-70
2024/03/08 10:26:23;;;;;;;;;;;;;;;7.48;100.00;100889.41;5051891;28;20328;-71
2024/03/08 10:28:49;;;;;;;;;;;;;;;7.55;100.00;100899.25;5051818;28;19923;-71
2024/03/08 10:31:15;;;;;;;;;;;;;;;7.56;100.00;100899.34;5052478;28;19917;-72
2024/03/08 10:33:41;;;;;;;;;;;;;;;7.55;100.00;100901.81;5051902;28;19924;-69
2024/03/08 10:36:10;;;;;;;;;;;;;;;7.52;100.00;100896.50;5051655;28;19931;-71
2024/03/08 10:38:42;;;;;;;;;;;;;;;7.53;100.00;100891.47;5051509;28;19935;-70
2024/03/08 10:41:12;;;;;;;;;;;;;;;7.57;100.00;100898.53;5047415;28;19931;-77
2024/03/08 10:44:00;;;;;;;;;;;;;;;7.62;100.00;100898.78;5051280;28;19936;-70
2024/03/08 10:46:28;;;;;;;;;;;;;;;7.60;100.00;100888.44;4989384;28;19973;-71
2024/03/08 10:48:56;;;;;;;;;;;;;;;7.65;100.00;100887.78;4989141;28;20385;-76
2024/03/08 10:51:21;;;;;;;;;;;;;;;7.70;100.00;100887.25;4989240;28;20460;-71
2024/03/08 10:53:48;;;;;;;;;;;;;;;7.72;100.00;100889.91;4989330;28;19925;-71
2024/03/08 10:56:14;;;;;;;;;;;;;;;7.76;100.00;100894.41;4956861;28;19977;-74
2024/03/08 10:58:40;;;;;;;;;;;;;;;7.75;100.00;100888.41;4984055;28;20382;-70
2024/03/08 11:01:06;;;;;;;;;;;;;;;7.76;100.00;100876.41;4988427;28;20449;-71
2024/03/08 11:03:40;;;;;;;;;;;;;;;7.68;100.00;100882.84;4940640;28;20041;-70
2024/03/08 11:06:06;;;;;;;;;;;;;;;7.72;100.00;100885.66;4989131;28;19926;-76
2024/03/08 11:08:33;;;;;;;;;;;;;;;7.85;100.00;100887.22;4989119;28;20424;-70
2024/03/08 11:10:59;;;;;;;;;;;;;;;7.94;100.00;100876.56;4969992;28;20452;-72
2024/03/08 11:13:37;;;;;;;;;;;;;;;7.89;100.00;100868.59;4988298;28;19922;-70
2024/03/08 11:16:07;;;;;;;;;;;;;;;7.90;100.00;100872.03;4988440;28;19975;-69
2024/03/08 11:18:34;;;;;;;;;;;;;;;7.96;100.00;100862.06;4988022;28;19972;-71
2024/03/08 11:21:02;;;;;;;;;;;;;;;8.06;100.00;100864.34;4988308;28;19926;-70
2024/03/08 11:23:31;;;;;;;;;;;;;;;8.04;100.00;100859.94;5019584;28;19925;-71
2024/03/08 11:25:56;;;;;;;;;;;;;;;8.15;100.00;100863.06;5049572;28;19921;-69
2024/03/08 11:28:23;;;;;;;;;;;;;;;8.12;100.00;100858.63;5050375;28;19929;-71
2024/03/08 11:31:00;;;;;;;;;;;;;;;8.17;100.00;100862.34;5050373;28;20433;-71
2024/03/08 11:33:30;;;;;;;;;;;;;;;8.24;100.00;100864.44;5050375;28;19917;-69
2024/03/08 11:36:16;;;;;;;;;;;;;;;8.23;100.00;100862.66;5049703;28;19970;-76
2024/03/08 11:38:48;;;;;;;;;;;;;;;8.25;100.00;100866.22;5050451;28;19979;-69
2024/03/08 11:41:14;;;;;;;;;;;;;;;8.35;100.00;100861.53;5050353;28;19921;-69
2024/03/08 11:43:41;;;;;;;;;;;;;;;8.36;100.00;100856.50;5050386;28;19982;-70
2024/03/08 11:46:09;;;;;;;;;;;;;;;8.40;100.00;100860.09;5021589;28;21283;-68
2024/03/08 11:48:35;;;;;;;;;;;;;;;8.38;100.00;100859.13;5030795;28;19953;-70
2024/03/08 11:51:01;;;;;;;;;;;;;;;8.35;100.00;100858.97;5032585;28;19947;-69
2024/03/08 11:53:27;;;;;;;;;;;;;;;8.43;100.00;100857.69;5049258;28;19921;-70
2024/03/08 11:55:52;;;;;;;;;;;;;;;8.53;100.00;100859.06;5051075;28;19967;-71
2024/03/08 11:58:19;;;;;;;;;;;;;;;8.55;100.00;100862.63;5050353;28;20007;-71
2024/03/08 12:00:46;;;;;;;;;;;;;;;8.57;100.00;100859.31;5033017;28;19920;-72
2024/03/08 12:03:12;;;;;;;;;;;;;;;8.61;100.00;100864.63;5030382;28;19978;-71
2024/03/08 12:05:38;;;;;;;;;;;;;;;8.63;100.00;100860.44;5050028;28;20304;-69
2024/03/08 12:08:05;;;;;;;;;;;;;;;8.65;100.00;100859.72;5039410;28;20342;-71
2024/03/08 12:10:30;;;;;;;;;;;;;;;8.64;100.00;100857.06;5044369;28;19920;-68
2024/03/08 12:12:59;;;;;;;;;;;;;;;8.66;100.00;100863.16;5031837;28;19929;-69
2024/03/08 12:15:24;;;;;;;;;;;;;;;8.67;100.00;100862.34;5050122;28;19921;-74
2024/03/08 12:17:51;;;;;;;;;;;;;;;8.72;100.00;100859.22;5049529;28;19982;-72
2024/03/08 12:20:25;;;;;;;;;;;;;;;8.79;100.00;100862.97;5049965;28;20384;-69
2024/03/08 12:22:53;;;;;;;;;;;;;;;8.79;100.00;100865.56;5048736;28;19920;-68
2024/03/08 12:25:18;;;;;;;;;;;;;;;8.76;100.00;100857.69;5049342;28;19975;-70
2024/03/08 12:27:45;;;;;;;;;;;;;;;8.82;100.00;100858.00;5049734;28;19948;-74
2024/03/08 12:30:27;;;;;;;;;;;;;;;8.81;100.00;100863.94;5048976;28;20002;-70
2024/03/08 12:32:56;;;;;;;;;;;;;;;8.79;100.00;100862.97;5049257;28;20011;-69